createdAt,value
2023-03-22T00:00:55.792Z,486.00
2023-03-22T00:01:55.820Z,490.00
2023-03-22T00:02:55.926Z,492.00
2023-03-22T00:03:55.907Z,494.00
2023-03-22T00:04:55.922Z,493.00
2023-03-22T00:05:55.914Z,491.00
2023-03-22T00:06:55.929Z,491.00
2023-03-22T00:07:55.975Z,490.00
2023-03-22T00:08:56.007Z,487.00
2023-03-22T00:09:56.040Z,488.00
2023-03-22T00:10:56.044Z,487.00
2023-03-22T00:11:56.068Z,490.00
2023-03-22T00:12:56.090Z,490.00
2023-03-22T00:13:56.135Z,488.00
2023-03-22T00:14:56.133Z,487.00
2023-03-22T00:15:56.191Z,488.00
2023-03-22T00:16:56.183Z,491.00
2023-03-22T00:17:56.212Z,491.00
2023-03-22T00:18:56.207Z,489.00
2023-03-22T00:19:56.281Z,490.00
2023-03-22T00:20:56.280Z,488.00
2023-03-22T00:21:56.329Z,490.00
2023-03-22T00:22:56.346Z,490.00
2023-03-22T00:23:56.370Z,489.00
2023-03-22T00:24:56.369Z,491.00
2023-03-22T00:25:56.433Z,489.00
2023-03-22T00:26:56.437Z,488.00
2023-03-22T00:27:56.469Z,488.00
2023-03-22T00:28:56.513Z,486.00
2023-03-22T00:29:56.540Z,485.00
2023-03-22T00:30:56.515Z,486.00
2023-03-22T00:31:56.561Z,486.00
2023-03-22T00:32:56.586Z,488.00
2023-03-22T00:33:56.620Z,488.00
2023-03-22T00:34:56.653Z,486.00
2023-03-22T00:35:56.703Z,483.00
2023-03-22T00:36:56.673Z,483.00
2023-03-22T00:37:56.710Z,483.00
2023-03-22T00:38:56.723Z,483.00
2023-03-22T00:39:56.748Z,483.00
2023-03-22T00:40:56.802Z,481.00
2023-03-22T00:41:56.808Z,482.00
2023-03-22T00:42:56.844Z,481.00
2023-03-22T00:43:56.840Z,483.00
2023-03-22T00:44:56.884Z,484.00
2023-03-22T00:45:56.965Z,483.00
2023-03-22T00:46:56.900Z,481.00
2023-03-22T00:47:57.035Z,480.00
2023-03-22T00:48:56.991Z,479.00
2023-03-22T00:49:57.005Z,481.00
2023-03-22T00:50:57.005Z,482.00
2023-03-22T00:51:57.046Z,482.00
2023-03-22T00:52:57.080Z,484.00
2023-03-22T00:53:57.202Z,487.00
2023-03-22T00:54:57.232Z,489.00
2023-03-22T00:55:57.322Z,486.00
2023-03-22T00:56:57.360Z,485.00
2023-03-22T00:57:57.434Z,486.00
2023-03-22T00:58:57.491Z,487.00
2023-03-22T00:59:57.575Z,487.00
2023-03-22T01:00:57.676Z,489.00
2023-03-22T01:01:57.717Z,489.00
2023-03-22T01:02:57.805Z,487.00
2023-03-22T01:03:57.903Z,487.00
2023-03-22T01:04:57.951Z,488.00
2023-03-22T01:05:58.022Z,487.00
2023-03-22T01:06:58.892Z,488.00
2023-03-22T01:07:58.139Z,488.00
2023-03-22T01:08:58.216Z,487.00
2023-03-22T01:09:58.292Z,488.00
2023-03-22T01:10:58.353Z,489.00
2023-03-22T01:11:58.435Z,489.00
2023-03-22T01:12:58.487Z,490.00
2023-03-22T01:13:58.558Z,489.00
2023-03-22T01:14:58.621Z,488.00
2023-03-22T01:15:58.724Z,487.00
2023-03-22T01:16:58.846Z,484.00
2023-03-22T01:17:58.837Z,483.00
2023-03-22T01:18:58.920Z,483.00
2023-03-22T01:19:58.962Z,483.00
2023-03-22T01:20:59.043Z,486.00
2023-03-22T01:21:59.127Z,485.00
2023-03-22T01:22:59.158Z,485.00
2023-03-22T01:23:59.268Z,486.00
2023-03-22T01:24:59.328Z,485.00
2023-03-22T01:25:59.410Z,484.00
2023-03-22T01:26:59.459Z,484.00
2023-03-22T01:27:59.572Z,484.00
2023-03-22T01:28:59.614Z,485.00
2023-03-22T01:29:59.691Z,485.00
2023-03-22T01:30:59.748Z,485.00
2023-03-22T01:31:59.814Z,488.00
2023-03-22T01:32:59.876Z,490.00
2023-03-22T01:34:00.002Z,492.00
2023-03-22T01:35:00.078Z,490.00
2023-03-22T01:36:00.157Z,490.00
2023-03-22T01:37:00.193Z,491.00
2023-03-22T01:38:00.218Z,493.00
2023-03-22T02:33:04.300Z,478.00
2023-03-22T02:34:04.359Z,477.00
2023-03-22T02:35:04.430Z,475.00
2023-03-22T02:36:04.527Z,478.00
2023-03-22T02:37:04.541Z,474.00
2023-03-22T02:38:04.594Z,476.00
2023-03-22T02:39:04.706Z,475.00
2023-03-22T02:40:04.779Z,476.00
2023-03-22T02:41:04.855Z,476.00
2023-03-22T02:42:04.917Z,477.00
2023-03-22T02:43:04.973Z,478.00
2023-03-22T02:44:05.045Z,480.00
2023-03-22T02:45:05.156Z,480.00
2023-03-22T02:46:05.202Z,480.00
2023-03-22T02:47:05.277Z,479.00
2023-03-22T02:48:05.423Z,480.00
2023-03-22T02:49:05.421Z,480.00
2023-03-22T02:50:05.498Z,481.00
2023-03-22T02:51:05.548Z,480.00
2023-03-22T02:52:05.629Z,480.00
2023-03-22T02:53:05.694Z,481.00
2023-03-22T02:54:05.785Z,481.00
2023-03-22T02:55:05.831Z,480.00
2023-03-22T02:56:05.950Z,480.00
2023-03-22T02:57:06.028Z,481.00
2023-03-22T02:58:06.105Z,483.00
2023-03-22T02:59:06.198Z,487.00
2023-03-22T03:00:06.246Z,487.00
2023-03-22T03:01:06.378Z,487.00
2023-03-22T03:02:06.457Z,487.00
2023-03-22T03:03:06.422Z,489.00
2023-03-22T03:04:06.496Z,489.00
2023-03-22T03:05:06.559Z,489.00
2023-03-22T03:06:06.644Z,487.00
2023-03-22T03:07:06.699Z,484.00
2023-03-22T03:08:06.762Z,482.00
2023-03-22T03:09:06.809Z,480.00
2023-03-22T03:10:06.898Z,481.00
2023-03-22T03:11:06.947Z,482.00
2023-03-22T03:12:06.997Z,481.00
2023-03-22T03:13:07.048Z,480.00
2023-03-22T03:14:07.130Z,483.00
2023-03-22T03:15:07.147Z,483.00
2023-03-22T03:16:07.290Z,485.00
2023-03-22T03:17:07.248Z,483.00
2023-03-22T03:18:07.308Z,482.00
2023-03-22T03:19:07.354Z,482.00
2023-03-22T03:20:07.394Z,480.00
2023-03-22T03:21:07.448Z,479.00
2023-03-22T03:22:07.494Z,478.00
2023-03-22T03:23:07.533Z,481.00
2023-03-22T03:24:07.602Z,484.00
2023-03-22T03:25:07.647Z,484.00
2023-03-22T03:26:07.665Z,485.00
2023-03-22T03:27:07.728Z,488.00
2023-03-22T03:28:07.787Z,487.00
2023-03-22T03:29:07.826Z,486.00
2023-03-22T03:30:07.833Z,484.00
2023-03-22T03:31:07.888Z,483.00
2023-03-22T03:32:07.947Z,480.00
2023-03-22T03:33:07.961Z,482.00
2023-03-22T03:34:08.011Z,483.00
2023-03-22T03:35:08.073Z,481.00
2023-03-22T03:36:08.135Z,482.00
2023-03-22T03:37:08.170Z,482.00
2023-03-22T03:38:08.240Z,481.00
2023-03-22T03:39:08.275Z,483.00
2023-03-22T03:40:08.320Z,484.00
2023-03-22T03:41:08.361Z,484.00
2023-03-22T03:42:08.405Z,483.00
2023-03-22T03:43:08.422Z,485.00
2023-03-22T03:44:08.496Z,487.00
2023-03-22T03:45:08.522Z,488.00
2023-03-22T03:46:08.573Z,488.00
2023-03-22T03:47:08.566Z,490.00
2023-03-22T03:48:08.684Z,488.00
2023-03-22T03:49:08.691Z,486.00
2023-03-22T03:50:08.725Z,486.00
2023-03-22T03:51:08.742Z,485.00
2023-03-22T03:52:08.796Z,484.00
2023-03-22T03:53:08.851Z,485.00
2023-03-22T03:54:08.861Z,486.00
2023-03-22T03:55:08.936Z,487.00
2023-03-22T03:56:08.941Z,488.00
2023-03-22T03:57:08.976Z,487.00
2023-03-22T03:58:09.023Z,485.00
2023-03-22T03:59:09.037Z,483.00
2023-03-22T04:00:09.076Z,484.00
2023-03-22T04:01:09.116Z,484.00
2023-03-22T04:02:09.179Z,484.00
2023-03-22T04:03:09.193Z,483.00
2023-03-22T04:04:09.271Z,485.00
2023-03-22T04:05:09.285Z,484.00
2023-03-22T04:06:09.293Z,485.00
2023-03-22T04:07:09.369Z,485.00
2023-03-22T04:08:09.401Z,485.00
2023-03-22T04:09:09.437Z,486.00
2023-03-22T04:10:09.441Z,485.00
2023-03-22T04:11:09.489Z,487.00
2023-03-22T04:12:09.500Z,488.00
2023-03-22T04:13:09.532Z,487.00
2023-03-22T04:14:09.586Z,489.00
2023-03-22T04:15:09.609Z,488.00
2023-03-22T04:16:09.624Z,488.00
2023-03-22T04:17:09.654Z,487.00
2023-03-22T04:18:09.687Z,487.00
2023-03-22T04:19:09.730Z,488.00
2023-03-22T04:20:09.751Z,486.00
2023-03-22T04:21:09.789Z,486.00
2023-03-22T04:22:09.802Z,486.00
2023-03-22T04:23:09.864Z,487.00
2023-03-22T04:24:09.933Z,488.00
2023-03-22T04:25:09.938Z,487.00
2023-03-22T04:26:09.997Z,489.00
2023-03-22T04:27:10.091Z,489.00
2023-03-22T04:28:10.116Z,489.00
2023-03-22T04:29:10.157Z,490.00
2023-03-22T04:30:10.230Z,492.00
2023-03-22T04:31:10.309Z,493.00
2023-03-22T04:32:10.302Z,492.00
2023-03-22T04:33:10.943Z,491.00
2023-03-22T04:34:10.417Z,490.00
2023-03-22T04:35:10.466Z,492.00
2023-03-22T04:36:10.517Z,490.00
2023-03-22T04:37:10.555Z,489.00
2023-03-22T04:38:10.630Z,489.00
2023-03-22T04:39:10.641Z,488.00
2023-03-22T04:40:10.706Z,490.00
2023-03-22T04:41:10.736Z,491.00
2023-03-22T04:42:10.763Z,490.00
2023-03-22T04:43:13.308Z,489.00
2023-03-22T04:44:10.800Z,489.00
2023-03-22T04:45:10.833Z,489.00
2023-03-22T04:46:10.856Z,487.00
2023-03-22T04:47:10.819Z,487.00
2023-03-22T04:48:10.870Z,488.00
2023-03-22T04:49:10.872Z,487.00
2023-03-22T04:50:10.867Z,485.00
2023-03-22T04:51:10.908Z,485.00
2023-03-22T04:52:10.935Z,486.00
2023-03-22T04:53:10.925Z,488.00
2023-03-22T04:54:10.960Z,488.00
2023-03-22T04:55:10.963Z,489.00
2023-03-22T04:56:10.965Z,488.00
2023-03-22T04:57:10.973Z,488.00
2023-03-22T04:58:10.989Z,488.00
2023-03-22T04:59:11.002Z,489.00
2023-03-22T05:00:11.024Z,485.00
2023-03-22T05:01:11.049Z,486.00
2023-03-22T05:02:11.014Z,486.00
2023-03-22T05:03:11.119Z,486.00
2023-03-22T05:04:11.042Z,485.00
2023-03-22T05:05:11.043Z,487.00
2023-03-22T05:06:11.069Z,488.00
2023-03-22T05:07:11.098Z,486.00
2023-03-22T05:08:11.111Z,486.00
2023-03-22T05:09:11.110Z,485.00
2023-03-22T05:10:11.121Z,483.00
2023-03-22T05:11:11.123Z,484.00
2023-03-22T05:12:11.137Z,482.00
2023-03-22T05:13:11.135Z,480.00
2023-03-22T05:14:11.156Z,479.00
2023-03-22T05:15:11.169Z,480.00
2023-03-22T05:16:11.202Z,481.00
2023-03-22T05:17:11.158Z,482.00
2023-03-22T05:18:11.179Z,481.00
2023-03-22T05:19:11.202Z,482.00
2023-03-22T05:20:11.210Z,484.00
2023-03-22T05:21:11.223Z,483.00
2023-03-22T05:22:11.223Z,480.00
2023-03-22T05:23:11.241Z,484.00
2023-03-22T05:24:11.211Z,485.00
2023-03-22T05:25:11.245Z,484.00
2023-03-22T05:26:11.265Z,483.00
2023-03-22T05:27:11.268Z,485.00
2023-03-22T05:28:11.288Z,487.00
2023-03-22T05:29:11.282Z,488.00
2023-03-22T05:30:11.280Z,487.00
2023-03-22T05:31:11.345Z,488.00
2023-03-22T05:32:11.317Z,490.00
2023-03-22T05:33:11.341Z,489.00
2023-03-22T05:34:11.342Z,488.00
2023-03-22T05:35:11.368Z,487.00
2023-03-22T05:36:11.333Z,486.00
2023-03-22T05:37:11.369Z,485.00
2023-03-22T05:38:11.421Z,482.00
2023-03-22T05:39:11.375Z,480.00
2023-03-22T05:40:11.405Z,483.00
2023-03-22T05:41:11.424Z,481.00
2023-03-22T05:42:11.407Z,481.00
2023-03-22T05:43:11.474Z,480.00
2023-03-22T05:44:11.460Z,481.00
2023-03-22T05:45:11.449Z,482.00
2023-03-22T05:46:11.477Z,483.00
2023-03-22T05:47:11.542Z,483.00
2023-03-22T05:48:11.529Z,481.00
2023-03-22T05:49:12.230Z,480.00
2023-03-22T05:50:11.979Z,481.00
2023-03-22T05:51:11.507Z,484.00
2023-03-22T05:52:11.517Z,484.00
2023-03-22T05:53:11.550Z,484.00
2023-03-22T05:54:11.553Z,481.00
2023-03-22T05:55:11.541Z,482.00
2023-03-22T05:56:11.558Z,482.00
2023-03-22T05:57:11.577Z,482.00
2023-03-22T05:58:11.606Z,482.00
2023-03-22T05:59:11.600Z,484.00
2023-03-22T06:01:30.422Z,494.00
2023-03-22T06:02:30.394Z,487.00
2023-03-22T06:03:30.481Z,488.00
2023-03-22T06:04:30.401Z,488.00
2023-03-22T06:05:30.375Z,489.00
2023-03-22T06:06:30.355Z,488.00
2023-03-22T06:07:30.361Z,485.00
2023-03-22T06:08:30.303Z,483.00
2023-03-22T06:09:30.327Z,480.00
2023-03-22T06:10:30.287Z,481.00
2023-03-22T06:11:30.301Z,480.00
2023-03-22T06:12:30.341Z,480.00
2023-03-22T06:13:30.334Z,480.00
2023-03-22T06:14:30.236Z,478.00
2023-03-22T06:15:30.247Z,478.00
2023-03-22T06:16:30.294Z,480.00
2023-03-22T06:17:30.206Z,480.00
2023-03-22T06:18:30.190Z,482.00
2023-03-22T06:19:30.187Z,484.00
2023-03-22T06:20:30.138Z,484.00
2023-03-22T06:21:30.143Z,485.00
2023-03-22T06:22:30.144Z,486.00
2023-03-22T06:23:30.115Z,486.00
2023-03-22T06:24:30.101Z,489.00
2023-03-22T06:25:30.103Z,489.00
2023-03-22T06:26:30.054Z,490.00
2023-03-22T06:27:30.025Z,491.00
2023-03-22T06:28:30.070Z,492.00
2023-03-22T06:29:30.032Z,495.00
2023-03-22T06:30:30.070Z,498.00
2023-03-22T06:31:29.963Z,501.00
2023-03-22T06:32:29.980Z,509.00
2023-03-22T06:33:29.969Z,512.00
2023-03-22T06:34:29.938Z,514.00
2023-03-22T06:35:30.133Z,523.00
2023-03-22T06:36:29.922Z,560.00
2023-03-22T06:37:29.922Z,551.00
2023-03-22T06:38:29.913Z,563.00
2023-03-22T06:39:29.920Z,562.00
2023-03-22T06:40:30.124Z,567.00
2023-03-22T06:41:29.926Z,567.00
2023-03-22T06:42:29.897Z,631.00
2023-03-22T06:43:29.887Z,647.00
2023-03-22T06:44:29.907Z,666.00
2023-03-22T06:45:37.126Z,672.00
2023-03-22T06:46:29.995Z,669.00
2023-03-22T06:47:29.921Z,675.00
2023-03-22T06:48:29.977Z,679.00
2023-03-22T06:49:30.954Z,693.00
2023-03-22T06:50:29.899Z,727.00
2023-03-22T06:51:29.869Z,751.00
2023-03-22T06:52:29.997Z,758.00
2023-03-22T06:53:30.636Z,761.00
2023-03-22T06:54:29.863Z,764.00
2023-03-22T06:55:29.848Z,765.00
2023-03-22T06:56:30.144Z,777.00
2023-03-22T06:57:30.141Z,800.00
2023-03-22T06:58:29.859Z,809.00
2023-03-22T06:59:29.808Z,811.00
2023-03-22T07:00:29.768Z,821.00
2023-03-22T07:01:29.773Z,883.00
2023-03-22T07:02:29.710Z,906.00
2023-03-22T07:03:29.681Z,908.00
2023-03-22T07:04:29.700Z,903.00
2023-03-22T07:05:29.639Z,907.00
2023-03-22T07:06:30.116Z,920.00
2023-03-22T07:07:29.610Z,933.00
2023-03-22T07:08:29.577Z,947.00
2023-03-22T07:09:29.553Z,956.00
2023-03-22T07:10:29.541Z,965.00
2023-03-22T07:11:29.538Z,987.00
2023-03-22T07:12:29.498Z,996.00
2023-03-22T07:13:29.452Z,1005.00
2023-03-22T07:14:30.293Z,1006.00
2023-03-22T07:15:29.430Z,1012.00
2023-03-22T07:16:29.750Z,1025.00
2023-03-22T07:17:29.481Z,1033.00
2023-03-22T07:18:29.487Z,1088.00
2023-03-22T07:19:29.491Z,1086.00
2023-03-22T07:20:29.514Z,1088.00
2023-03-22T07:21:29.531Z,1090.00
2023-03-22T07:22:29.512Z,1092.00
2023-03-22T07:23:29.518Z,1104.00
2023-03-22T07:24:29.528Z,1116.00
2023-03-22T07:25:29.537Z,1119.00
2023-03-22T07:26:29.529Z,1127.00
2023-03-22T07:27:29.578Z,1133.00
2023-03-22T07:28:29.557Z,1145.00
2023-03-22T07:29:29.573Z,1151.00
2023-03-22T07:30:29.588Z,1156.00
2023-03-22T07:31:29.648Z,1159.00
2023-03-22T07:32:29.655Z,1167.00
2023-03-22T07:33:29.582Z,1173.00
2023-03-22T07:34:29.572Z,1204.00
2023-03-22T07:35:29.666Z,1245.00
2023-03-22T07:36:29.645Z,1237.00
2023-03-22T07:37:29.601Z,1287.00
2023-03-22T07:38:29.667Z,749.00
2023-03-22T07:39:29.653Z,706.00
2023-03-22T07:40:29.662Z,687.00
2023-03-22T07:41:29.698Z,707.00
2023-03-22T07:42:29.694Z,762.00
2023-03-22T07:43:29.722Z,774.00
2023-03-22T07:44:29.755Z,784.00
2023-03-22T07:45:29.863Z,799.00
2023-03-22T07:46:29.824Z,820.00
2023-03-22T07:47:40.293Z,829.00
2023-03-22T07:48:30.777Z,830.00
2023-03-22T07:49:29.731Z,829.00
2023-03-22T07:50:29.763Z,825.00
2023-03-22T07:51:29.728Z,822.00
2023-03-22T07:52:29.672Z,820.00
2023-03-22T07:53:29.690Z,821.00
2023-03-22T07:54:33.717Z,817.00
2023-03-22T07:55:29.635Z,811.00
2023-03-22T07:56:29.668Z,804.00
2023-03-22T07:57:29.630Z,796.00
2023-03-22T07:58:29.594Z,793.00
2023-03-22T07:59:29.550Z,788.00
2023-03-22T08:00:29.576Z,782.00
2023-03-22T08:01:29.549Z,782.00
2023-03-22T08:02:29.516Z,777.00
2023-03-22T08:03:29.583Z,774.00
2023-03-22T08:04:29.480Z,771.00
2023-03-22T08:05:29.478Z,769.00
2023-03-22T08:06:29.470Z,764.00
2023-03-22T08:07:29.421Z,759.00
2023-03-22T08:08:29.420Z,765.00
2023-03-22T08:09:29.399Z,769.00
2023-03-22T08:10:29.357Z,767.00
2023-03-22T08:11:29.336Z,761.00
2023-03-22T08:12:29.321Z,759.00
2023-03-22T08:13:29.338Z,762.00
2023-03-22T08:14:36.356Z,765.00
2023-03-22T08:15:30.343Z,766.00
2023-03-22T08:16:29.759Z,766.00
2023-03-22T08:17:29.296Z,764.00
2023-03-22T08:18:29.247Z,756.00
2023-03-22T08:19:29.221Z,749.00
2023-03-22T08:20:29.200Z,741.00
2023-03-22T08:21:29.189Z,742.00
2023-03-22T08:22:29.178Z,750.00
2023-03-22T08:23:40.889Z,751.00
2023-03-22T08:24:30.122Z,743.00
2023-03-22T08:25:29.109Z,674.00
2023-03-22T08:26:29.084Z,651.00
2023-03-22T08:27:29.074Z,645.00
2023-03-22T08:28:29.049Z,642.00
2023-03-22T08:29:29.020Z,644.00
2023-03-22T08:30:29.028Z,646.00
2023-03-22T08:31:29.223Z,578.00
2023-03-22T08:32:29.013Z,549.00
2023-03-22T08:33:28.973Z,531.00
2023-03-22T08:34:28.980Z,506.00
2023-03-22T08:35:29.007Z,506.00
2023-03-22T08:36:29.173Z,511.00
2023-03-22T08:37:29.023Z,516.00
2023-03-22T08:38:29.040Z,515.00
2023-03-22T08:39:29.060Z,508.00
2023-03-22T08:40:29.148Z,503.00
2023-03-22T08:41:29.172Z,498.00
2023-03-22T08:42:29.208Z,495.00
2023-03-22T08:43:29.288Z,582.00
2023-03-22T08:44:29.497Z,580.00
2023-03-22T08:45:29.335Z,606.00
2023-03-22T08:46:29.440Z,661.00
2023-03-22T08:47:29.481Z,642.00
2023-03-22T08:48:29.474Z,628.00
2023-03-22T08:49:29.537Z,629.00
2023-03-22T08:50:29.599Z,636.00
2023-03-22T08:51:29.592Z,642.00
2023-03-22T08:52:29.629Z,649.00
2023-03-22T08:53:29.652Z,651.00
2023-03-22T08:54:29.667Z,653.00
2023-03-22T08:55:29.739Z,665.00
2023-03-22T08:56:29.758Z,683.00
2023-03-22T08:57:29.780Z,694.00
2023-03-22T08:58:29.834Z,700.00
2023-03-22T08:59:29.848Z,703.00
2023-03-22T09:00:42.306Z,711.00
2023-03-22T09:01:31.369Z,718.00
2023-03-22T09:02:29.891Z,759.00
2023-03-22T09:03:29.791Z,781.00
2023-03-22T09:04:29.904Z,788.00
2023-03-22T09:05:29.808Z,791.00
2023-03-22T09:06:29.810Z,797.00
2023-03-22T09:07:29.745Z,799.00
2023-03-22T09:08:29.724Z,807.00
2023-03-22T09:09:29.754Z,829.00
2023-03-22T09:10:29.708Z,828.00
2023-03-22T09:11:29.706Z,828.00
2023-03-22T09:12:29.680Z,828.00
2023-03-22T09:13:29.661Z,831.00
2023-03-22T09:14:29.620Z,888.00
2023-03-22T09:15:29.608Z,899.00
2023-03-22T09:16:29.663Z,892.00
2023-03-22T09:17:29.583Z,892.00
2023-03-22T09:18:29.551Z,882.00
2023-03-22T09:19:29.574Z,876.00
2023-03-22T09:20:29.629Z,870.00
2023-03-22T09:21:29.635Z,884.00
2023-03-22T09:22:29.682Z,889.00
2023-03-22T09:23:29.674Z,812.00
2023-03-22T09:24:29.729Z,807.00
2023-03-22T09:25:29.742Z,826.00
2023-03-22T09:26:29.754Z,838.00
2023-03-22T09:27:29.748Z,838.00
2023-03-22T09:28:29.827Z,836.00
2023-03-22T09:29:29.792Z,836.00
2023-03-22T09:30:29.812Z,839.00
2023-03-22T09:31:29.879Z,842.00
2023-03-22T09:32:30.170Z,842.00
2023-03-22T09:33:29.903Z,841.00
2023-03-22T09:34:29.935Z,833.00
2023-03-22T09:35:30.043Z,822.00
2023-03-22T09:36:30.005Z,815.00
2023-03-22T09:37:30.246Z,811.00
2023-03-22T09:38:30.077Z,810.00
2023-03-22T09:39:30.149Z,806.00
2023-03-22T09:40:30.125Z,800.00
2023-03-22T09:41:30.189Z,794.00
2023-03-22T09:42:30.713Z,788.00
2023-03-22T09:43:32.762Z,784.00
2023-03-22T09:44:30.251Z,781.00
2023-03-22T09:45:30.226Z,775.00
2023-03-22T09:46:30.231Z,772.00
2023-03-22T09:47:42.246Z,768.00
2023-03-22T09:48:31.272Z,766.00
2023-03-22T09:49:30.147Z,761.00
2023-03-22T09:50:30.122Z,755.00
2023-03-22T09:51:30.110Z,572.00
2023-03-22T09:52:30.249Z,506.00
2023-03-22T09:53:30.090Z,485.00
2023-03-22T09:54:30.144Z,476.00
2023-03-22T09:55:30.140Z,469.00
2023-03-22T09:56:30.178Z,467.00
2023-03-22T09:57:30.726Z,465.00
2023-03-22T09:58:30.332Z,461.00
2023-03-22T09:59:30.362Z,458.00
2023-03-22T10:00:30.538Z,461.00
2023-03-22T10:01:30.648Z,460.00
2023-03-22T10:02:30.558Z,462.00
2023-03-22T10:03:30.587Z,460.00
2023-03-22T10:04:30.783Z,459.00
2023-03-22T10:05:30.706Z,457.00
2023-03-22T10:06:30.726Z,456.00
2023-03-22T10:07:30.816Z,456.00
2023-03-22T10:08:30.794Z,455.00
2023-03-22T10:09:30.822Z,454.00
2023-03-22T10:10:30.868Z,452.00
2023-03-22T10:11:30.903Z,450.00
2023-03-22T10:12:31.213Z,451.00
2023-03-22T10:13:30.921Z,450.00
2023-03-22T10:14:30.930Z,452.00
2023-03-22T10:15:30.994Z,450.00
2023-03-22T10:16:31.070Z,449.00
2023-03-22T10:17:31.034Z,448.00
2023-03-22T10:18:31.072Z,451.00
2023-03-22T10:19:31.102Z,451.00
2023-03-22T10:20:31.148Z,449.00
2023-03-22T10:21:31.176Z,447.00
2023-03-22T10:22:31.203Z,445.00
2023-03-22T10:23:31.269Z,446.00
2023-03-22T10:24:31.226Z,445.00
2023-03-22T10:25:31.280Z,444.00
2023-03-22T10:26:31.280Z,443.00
2023-03-22T10:27:31.319Z,444.00
2023-03-22T10:28:31.323Z,441.00
2023-03-22T10:29:32.281Z,439.00
2023-03-22T10:30:31.370Z,440.00
2023-03-22T10:31:31.416Z,442.00
2023-03-22T10:32:31.409Z,440.00
2023-03-22T10:33:31.475Z,440.00
2023-03-22T10:34:31.453Z,440.00
2023-03-22T10:35:31.486Z,439.00
2023-03-22T10:36:31.527Z,439.00
2023-03-22T10:37:31.529Z,443.00
2023-03-22T10:38:31.538Z,442.00
2023-03-22T10:39:31.622Z,437.00
2023-03-22T10:40:31.601Z,437.00
2023-03-22T10:41:31.672Z,438.00
2023-03-22T10:42:31.724Z,440.00
2023-03-22T10:43:31.840Z,455.00
2023-03-22T10:44:31.772Z,508.00
2023-03-22T10:45:31.823Z,498.00
2023-03-22T10:46:31.894Z,499.00
2023-03-22T10:47:32.254Z,505.00
2023-03-22T10:48:32.061Z,520.00
2023-03-22T10:49:31.983Z,528.00
2023-03-22T10:50:31.981Z,544.00
2023-03-22T10:51:32.052Z,590.00
2023-03-22T10:52:32.247Z,591.00
2023-03-22T10:53:32.252Z,617.00
2023-03-22T10:54:32.226Z,626.00
2023-03-22T10:55:32.233Z,632.00
2023-03-22T10:56:33.231Z,639.00
2023-03-22T10:57:32.236Z,678.00
2023-03-22T10:58:32.222Z,687.00
2023-03-22T10:59:32.223Z,677.00
2023-03-22T11:00:32.329Z,673.00
2023-03-22T11:01:32.417Z,671.00
2023-03-22T11:02:32.397Z,669.00
2023-03-22T11:03:32.336Z,665.00
2023-03-22T11:04:32.314Z,668.00
2023-03-22T11:05:32.257Z,673.00
2023-03-22T11:06:32.207Z,687.00
2023-03-22T11:07:32.214Z,693.00
2023-03-22T11:08:32.256Z,698.00
2023-03-22T11:09:32.192Z,701.00
2023-03-22T11:10:32.292Z,703.00
2023-03-22T11:11:32.161Z,701.00
2023-03-22T11:12:32.173Z,697.00
2023-03-22T11:13:32.143Z,696.00
2023-03-22T11:14:32.160Z,699.00
2023-03-22T11:15:32.167Z,701.00
2023-03-22T11:16:32.206Z,701.00
2023-03-22T11:17:32.139Z,702.00
2023-03-22T11:18:32.159Z,704.00
2023-03-22T11:19:32.149Z,699.00
2023-03-22T11:20:32.221Z,695.00
2023-03-22T11:21:32.196Z,697.00
2023-03-22T11:22:32.248Z,700.00
2023-03-22T11:23:32.306Z,707.00
2023-03-22T11:24:32.322Z,715.00
2023-03-22T11:25:32.448Z,716.00
2023-03-22T11:26:32.906Z,715.00
2023-03-22T11:27:32.418Z,715.00
2023-03-22T11:28:32.751Z,718.00
2023-03-22T11:29:32.451Z,714.00
2023-03-22T11:30:32.516Z,711.00
2023-03-22T11:31:32.581Z,713.00
2023-03-22T11:32:32.592Z,716.00
2023-03-22T11:33:32.761Z,720.00
2023-03-22T11:34:32.649Z,720.00
2023-03-22T11:35:32.719Z,728.00
2023-03-22T11:36:32.731Z,730.00
2023-03-22T11:37:32.793Z,618.00
2023-03-22T11:38:33.233Z,589.00
2023-03-22T11:39:32.837Z,607.00
2023-03-22T11:40:32.873Z,654.00
2023-03-22T11:41:32.894Z,663.00
2023-03-22T11:42:32.881Z,668.00
2023-03-22T11:43:33.238Z,661.00
2023-03-22T11:44:32.937Z,654.00
2023-03-22T11:45:32.975Z,648.00
2023-03-22T11:46:33.029Z,643.00
2023-03-22T11:47:33.025Z,643.00
2023-03-22T11:48:33.108Z,638.00
2023-03-22T11:49:33.007Z,635.00
2023-03-22T11:50:33.018Z,633.00
2023-03-22T11:51:33.063Z,633.00
2023-03-22T11:52:33.054Z,633.00
2023-03-22T11:53:33.112Z,629.00
2023-03-22T11:54:33.106Z,626.00
2023-03-22T11:55:33.762Z,621.00
2023-03-22T11:56:33.294Z,617.00
2023-03-22T11:57:33.188Z,614.00
2023-03-22T11:58:33.275Z,610.00
2023-03-22T11:59:33.351Z,605.00
2023-03-22T12:00:33.310Z,600.00
2023-03-22T12:01:33.405Z,596.00
2023-03-22T12:02:33.541Z,595.00
2023-03-22T12:03:34.557Z,596.00
2023-03-22T12:04:33.581Z,597.00
2023-03-22T12:05:33.482Z,598.00
2023-03-22T12:06:33.524Z,597.00
2023-03-22T12:07:33.570Z,595.00
2023-03-22T12:08:33.648Z,592.00
2023-03-22T12:09:33.670Z,589.00
2023-03-22T12:10:33.788Z,589.00
2023-03-22T12:11:33.717Z,589.00
2023-03-22T12:12:33.731Z,587.00
2023-03-22T12:13:34.257Z,589.00
2023-03-22T12:14:33.837Z,589.00
2023-03-22T12:15:33.898Z,589.00
2023-03-22T12:16:33.941Z,587.00
2023-03-22T12:17:34.113Z,587.00
2023-03-22T12:18:33.965Z,586.00
2023-03-22T12:19:34.776Z,586.00
2023-03-22T12:20:34.008Z,586.00
2023-03-22T12:21:34.040Z,586.00
2023-03-22T12:22:34.073Z,588.00
2023-03-22T12:23:34.264Z,589.00
2023-03-22T12:24:34.138Z,589.00
2023-03-22T12:25:34.180Z,589.00
2023-03-22T12:26:34.203Z,589.00
2023-03-22T12:27:34.282Z,584.00
2023-03-22T12:28:34.775Z,583.00
2023-03-22T12:29:34.297Z,587.00
2023-03-22T12:30:34.317Z,599.00
2023-03-22T12:31:34.416Z,642.00
2023-03-22T12:32:34.419Z,659.00
2023-03-22T12:33:34.865Z,687.00
2023-03-22T12:34:34.449Z,691.00
2023-03-22T12:35:34.495Z,693.00
2023-03-22T12:36:34.599Z,690.00
2023-03-22T12:37:34.581Z,687.00
2023-03-22T12:38:34.787Z,682.00
2023-03-22T12:39:34.645Z,676.00
2023-03-22T12:40:34.702Z,671.00
2023-03-22T12:41:34.683Z,667.00
2023-03-22T12:42:34.918Z,665.00
2023-03-22T12:43:34.704Z,663.00
2023-03-22T12:44:34.690Z,662.00
2023-03-22T12:45:34.645Z,663.00
2023-03-22T12:46:34.718Z,663.00
2023-03-22T12:47:34.663Z,663.00
2023-03-22T12:48:34.740Z,665.00
2023-03-22T12:49:34.599Z,665.00
2023-03-22T12:50:34.574Z,664.00
2023-03-22T12:51:34.538Z,663.00
2023-03-22T12:52:44.556Z,660.00
2023-03-22T12:53:35.523Z,660.00
2023-03-22T12:54:34.516Z,658.00
2023-03-22T12:55:34.463Z,656.00
2023-03-22T12:56:34.469Z,654.00
2023-03-22T12:57:34.435Z,652.00
2023-03-22T12:58:34.415Z,651.00
2023-03-22T12:59:34.400Z,651.00
2023-03-22T13:00:34.411Z,650.00
2023-03-22T13:01:34.381Z,647.00
2023-03-22T13:02:34.448Z,644.00
2023-03-22T13:03:34.522Z,644.00
2023-03-22T13:04:34.356Z,642.00
2023-03-22T13:05:34.418Z,641.00
2023-03-22T13:06:34.457Z,642.00
2023-03-22T13:07:34.453Z,638.00
2023-03-22T13:08:34.465Z,641.00
2023-03-22T13:09:34.510Z,642.00
2023-03-22T13:10:34.525Z,643.00
2023-03-22T13:11:34.544Z,645.00
2023-03-22T13:12:34.605Z,645.00
2023-03-22T13:13:34.603Z,645.00
2023-03-22T13:14:34.603Z,646.00
2023-03-22T13:15:41.856Z,643.00
2023-03-22T13:16:35.648Z,639.00
2023-03-22T13:17:34.661Z,639.00
2023-03-22T13:18:35.284Z,638.00
2023-03-22T13:19:34.651Z,635.00
2023-03-22T13:20:34.560Z,632.00
2023-03-22T13:21:34.600Z,632.00
2023-03-22T13:22:34.504Z,631.00
2023-03-22T13:23:34.483Z,633.00